Time;durP1;ratioP1;P1;durP2;ratioP2;P2;SDS_P1;SDS_P2;PMS_P1;PMS_P2;Temp;Humidity;BMP_temperature;BMP_pressure;BME280_temperature;BME280_humidity;BME280_pressure;Samples;Min_cycle;Max_cycle;Signal;HPM_P1;HPM_P2
2021/08/19 00:00:42;;;;;;;2.97;2.50;;;21.50;70.70;;;;;;5118737;27;20043;-53
2021/08/19 00:03:08;;;;;;;3.67;2.10;;;21.50;70.70;;;;;;5136139;27;20047;-55
2021/08/19 00:05:33;;;;;;;2.25;2.05;;;21.50;70.70;;;;;;5135925;27;20124;-53
2021/08/19 00:07:59;;;;;;;2.42;2.22;;;21.50;70.70;;;;;;5135521;27;20067;-40
2021/08/19 00:10:25;;;;;;;2.60;2.40;;;21.50;70.70;;;;;;5136918;27;20088;-52
2021/08/19 00:12:51;;;;;;;2.70;2.10;;;21.50;70.70;;;;;;5135417;27;20043;-36
2021/08/19 00:15:16;;;;;;;2.20;2.00;;;21.50;70.70;;;;;;5135873;27;20447;-47
2021/08/19 00:17:42;;;;;;;2.50;2.30;;;21.50;70.70;;;;;;5135866;27;20100;-53
2021/08/19 00:20:08;;;;;;;2.30;2.10;;;21.40;70.60;;;;;;5135833;27;20051;-49
2021/08/19 00:22:36;;;;;;;2.30;2.10;;;21.50;70.70;;;;;;5136939;27;20046;-49
2021/08/19 00:25:03;;;;;;;2.50;2.30;;;21.50;70.70;;;;;;5135532;27;20050;-49
2021/08/19 00:27:28;;;;;;;2.50;2.20;;;21.50;70.70;;;;;;5117034;27;20044;-44
2021/08/19 00:29:55;;;;;;;2.60;2.17;;;21.50;70.70;;;;;;5135160;27;20102;-50
2021/08/19 00:32:21;;;;;;;2.70;2.38;;;21.40;70.70;;;;;;5136781;27;20047;-52
2021/08/19 00:34:46;;;;;;;2.47;2.20;;;21.50;70.70;;;;;;5135505;27;20075;-39
2021/08/19 00:37:12;;;;;;;2.35;2.15;;;21.50;70.70;;;;;;5135464;27;20076;-52
2021/08/19 00:39:38;;;;;;;2.47;1.98;;;21.40;70.70;;;;;;5135342;27;20483;-53
2021/08/19 00:42:06;;;;;;;2.33;2.10;;;21.50;70.70;;;;;;5136486;27;20035;-47
2021/08/19 00:44:32;;;;;;;2.53;2.20;;;21.50;70.70;;;;;;5143554;27;20043;-53
2021/08/19 00:46:58;;;;;;;2.65;2.45;;;21.50;70.70;;;;;;5156074;27;20057;-54
2021/08/19 00:49:23;;;;;;;2.35;2.15;;;21.50;70.70;;;;;;5156310;27;20043;-55
2021/08/19 00:51:52;;;;;;;2.50;2.30;;;21.50;70.70;;;;;;5155966;27;20039;-52
2021/08/19 00:54:22;;;;;;;2.40;2.20;;;21.50;70.70;;;;;;5154371;27;20116;-50
2021/08/19 00:57:01;;;;;;;2.83;2.22;;;21.50;70.70;;;;;;5156010;27;20478;-52
2021/08/19 00:59:36;;;;;;;2.40;2.20;;;21.50;70.70;;;;;;5156620;27;20047;-54
2021/08/19 01:02:03;;;;;;;2.45;2.25;;;21.40;70.70;;;;;;5155147;27;20046;-54
2021/08/19 01:04:50;;;;;;;2.50;2.28;;;21.40;70.70;;;;;;5153728;27;20783;-48
2021/08/19 01:07:17;;;;;;;2.47;2.25;;;21.40;71.40;;;;;;5155101;27;20057;-35
2021/08/19 01:09:44;;;;;;;2.17;1.98;;;21.40;70.70;;;;;;5155493;27;20059;-47
2021/08/19 01:12:13;;;;;;;1.90;1.80;;;21.50;70.80;;;;;;5155714;27;20058;-51
2021/08/19 01:14:42;;;;;;;2.60;2.00;;;21.50;70.80;;;;;;5153957;27;20122;-38
2021/08/19 01:17:13;;;;;;;2.30;2.10;;;21.40;71.40;;;;;;5155098;27;20039;-51
2021/08/19 01:19:40;;;;;;;2.58;2.13;;;21.40;70.80;;;;;;5155490;27;20455;-40
2021/08/19 01:22:06;;;;;;;2.30;2.10;;;21.40;71.10;;;;;;5155388;27;20047;-48
2021/08/19 01:24:32;;;;;;;2.80;2.50;;;21.40;70.80;;;;;;5154226;27;20394;-57
2021/08/19 01:26:58;;;;;;;2.25;2.05;;;21.40;70.80;;;;;;5155946;27;20043;-57
2021/08/19 01:29:24;;;;;;;2.42;2.20;;;21.40;70.80;;;;;;5153995;27;20372;-56
2021/08/19 01:32:00;;;;;;;2.28;1.98;;;21.40;70.80;;;;;;5154848;27;20146;-54
2021/08/19 01:34:26;;;;;;;2.33;2.13;;;21.40;70.80;;;;;;5154906;27;20068;-55
2021/08/19 01:36:52;;;;;;;2.15;2.00;;;21.40;70.80;;;;;;5153295;27;20047;-51
2021/08/19 01:39:18;;;;;;;2.17;1.95;;;21.40;70.80;;;;;;5155090;27;20049;-53
2021/08/19 01:41:44;;;;;;;2.10;1.90;;;21.40;70.80;;;;;;5154999;27;20057;-53
2021/08/19 01:44:10;;;;;;;2.25;2.05;;;21.40;70.80;;;;;;5155311;27;20049;-57
2021/08/19 01:46:35;;;;;;;2.40;2.20;;;21.40;70.80;;;;;;5153219;27;20503;-52
2021/08/19 01:49:02;;;;;;;2.13;1.90;;;21.40;70.80;;;;;;5144361;27;20081;-54
2021/08/19 01:51:28;;;;;;;2.35;2.13;;;21.40;70.80;;;;;;5154635;27;20042;-41
2021/08/19 01:53:54;;;;;;;2.08;1.92;;;21.40;70.90;;;;;;5154827;27;20043;-53
2021/08/19 01:56:22;;;;;;;2.97;2.03;;;21.40;70.90;;;;;;5153238;27;20065;-46
2021/08/19 01:58:48;;;;;;;3.28;2.22;;;21.40;70.90;;;;;;5154639;27;20062;-48
2021/08/19 02:01:19;;;;;;;1.98;1.88;;;21.40;70.90;;;;;;5154457;27;20122;-49
2021/08/19 02:03:44;;;;;;;2.30;2.10;;;21.40;70.90;;;;;;5153721;27;20043;-41
2021/08/19 02:06:10;;;;;;;2.10;1.90;;;21.40;70.90;;;;;;5154233;27;20047;-36
2021/08/19 02:08:37;;;;;;;2.10;1.90;;;21.40;70.90;;;;;;5152153;27;20059;-54
2021/08/19 02:11:03;;;;;;;1.80;1.70;;;21.40;70.90;;;;;;5154687;27;20467;-35
2021/08/19 02:13:29;;;;;;;2.88;2.45;;;21.40;70.90;;;;;;5153608;27;20163;-39
2021/08/19 02:15:55;;;;;;;1.98;1.85;;;21.40;70.90;;;;;;5154198;27;20042;-43
2021/08/19 02:18:21;;;;;;;2.20;2.00;;;21.40;70.90;;;;;;5152527;27;20047;-48
2021/08/19 02:20:46;;;;;;;2.88;2.35;;;21.40;70.90;;;;;;5153548;27;20046;-54
2021/08/19 02:23:12;;;;;;;3.13;2.00;;;21.30;70.80;;;;;;5154055;27;20046;-55
2021/08/19 02:25:38;;;;;;;2.38;2.17;;;21.40;70.90;;;;;;5154066;27;20482;-57
2021/08/19 02:28:04;;;;;;;2.80;2.22;;;21.40;70.90;;;;;;5153714;27;20038;-48
2021/08/19 02:30:29;;;;;;;2.10;1.90;;;21.40;70.90;;;;;;5152530;27;20042;-54
2021/08/19 02:32:56;;;;;;;2.30;2.10;;;21.40;70.90;;;;;;5153917;27;20043;-54
2021/08/19 02:35:26;;;;;;;2.50;2.30;;;21.40;70.90;;;;;;5153282;27;20043;-43
2021/08/19 02:37:54;;;;;;;2.35;2.15;;;21.40;70.90;;;;;;5154080;27;20050;-54
2021/08/19 02:40:23;;;;;;;2.63;2.30;;;21.40;70.90;;;;;;5152059;27;20049;-56
2021/08/19 02:42:49;;;;;;;2.67;2.30;;;21.40;70.90;;;;;;5154013;27;20038;-58
2021/08/19 02:45:16;;;;;;;2.38;2.17;;;21.40;70.90;;;;;;5154092;27;20054;-56
2021/08/19 02:47:41;;;;;;;2.15;1.92;;;21.40;70.90;;;;;;5153963;27;20197;-56
2021/08/19 02:50:08;;;;;;;2.38;2.17;;;21.40;70.90;;;;;;5151989;27;20137;-54
2021/08/19 02:52:34;;;;;;;2.10;1.95;;;21.40;70.90;;;;;;5152556;27;20046;-49
2021/08/19 02:55:00;;;;;;;3.40;1.90;;;21.40;70.90;;;;;;5153673;27;20042;-37
2021/08/19 02:57:26;;;;;;;2.42;2.17;;;21.40;70.90;;;;;;5153732;27;20043;-51
2021/08/19 02:59:51;;;;;;;2.20;2.00;;;21.40;70.90;;;;;;5153860;27;20043;-51
2021/08/19 03:02:17;;;;;;;3.15;2.22;;;21.40;70.90;;;;;;5152132;27;20057;-47
2021/08/19 03:04:43;;;;;;;2.10;1.90;;;21.40;70.90;;;;;;5153594;27;20084;-56
2021/08/19 03:07:09;;;;;;;2.22;2.03;;;21.40;70.90;;;;;;5153254;27;20375;-56
2021/08/19 03:09:36;;;;;;;1.95;1.80;;;21.40;70.90;;;;;;5153370;27;20066;-57
2021/08/19 03:12:03;;;;;;;2.47;2.20;;;21.40;70.90;;;;;;5152239;27;20046;-36
2021/08/19 03:14:28;;;;;;;2.80;2.35;;;21.40;70.90;;;;;;5153852;27;20047;-54
2021/08/19 03:16:54;;;;;;;2.25;1.80;;;21.40;70.90;;;;;;5153323;27;20042;-52
2021/08/19 03:19:20;;;;;;;1.98;1.85;;;21.40;70.90;;;;;;5153437;27;20053;-46
2021/08/19 03:21:46;;;;;;;2.25;1.90;;;21.40;70.90;;;;;;5151551;27;20046;-42
2021/08/19 03:24:13;;;;;;;2.33;2.03;;;21.40;71.00;;;;;;5154355;27;20053;-46
2021/08/19 03:26:40;;;;;;;2.13;1.92;;;21.40;70.90;;;;;;5157704;27;20113;-53
2021/08/19 03:29:06;;;;;;;2.30;2.10;;;21.40;71.00;;;;;;5157646;27;20042;-48
2021/08/19 03:31:31;;;;;;;2.10;2.00;;;21.30;70.90;;;;;;5157708;27;20046;-54
2021/08/19 03:33:58;;;;;;;2.40;2.05;;;21.40;71.00;;;;;;5155980;27;20043;-54
2021/08/19 03:36:25;;;;;;;1.83;1.73;;;21.40;71.00;;;;;;5157497;27;20039;-38
2021/08/19 03:38:52;;;;;;;2.25;1.88;;;21.30;70.90;;;;;;5157271;27;20103;-48
2021/08/19 03:41:18;;;;;;;2.55;2.35;;;21.40;71.00;;;;;;5157803;27;20055;-49
2021/08/19 03:43:47;;;;;;;3.70;2.10;;;21.40;71.00;;;;;;5156144;27;20118;-44
2021/08/19 03:46:14;;;;;;;2.22;1.98;;;21.40;71.00;;;;;;5158333;27;20043;-49
2021/08/19 03:48:40;;;;;;;2.40;2.20;;;21.30;70.90;;;;;;5157534;27;20525;-52
2021/08/19 03:51:07;;;;;;;2.60;2.10;;;21.40;71.00;;;;;;5157224;27;20077;-44
2021/08/19 03:53:35;;;;;;;2.10;1.90;;;21.30;70.90;;;;;;5155606;27;20101;-49
2021/08/19 03:56:00;;;;;;;2.60;2.38;;;21.30;70.90;;;;;;5137093;27;20137;-57
2021/08/19 03:58:26;;;;;;;3.03;2.30;;;21.40;71.00;;;;;;5156920;27;20087;-49
2021/08/19 04:00:52;;;;;;;2.45;2.13;;;21.30;70.90;;;;;;5157284;27;20047;-52
2021/08/19 04:03:18;;;;;;;1.80;1.70;;;21.40;71.00;;;;;;5157071;27;20046;-57
2021/08/19 04:05:45;;;;;;;2.72;2.40;;;21.40;71.00;;;;;;5155569;27;20046;-55
2021/08/19 04:08:10;;;;;;;2.83;1.80;;;21.40;71.00;;;;;;5147231;27;20133;-53
2021/08/19 04:10:36;;;;;;;1.70;1.60;;;21.30;70.90;;;;;;5136143;27;20043;-47
2021/08/19 04:13:02;;;;;;;2.63;2.25;;;21.30;71.00;;;;;;5136631;27;20066;-39
2021/08/19 04:15:28;;;;;;;2.22;1.88;;;21.30;70.90;;;;;;5137269;27;20432;-38
2021/08/19 04:17:54;;;;;;;2.72;2.28;;;21.30;70.90;;;;;;5135940;27;20126;-54
2021/08/19 04:20:22;;;;;;;2.55;2.33;;;21.30;70.90;;;;;;5135599;27;20046;-57
2021/08/19 04:22:49;;;;;;;2.13;1.92;;;21.30;70.90;;;;;;5135219;27;20043;-55
2021/08/19 04:25:15;;;;;;;2.25;2.05;;;21.30;71.00;;;;;;5135321;27;20039;-46
2021/08/19 04:27:41;;;;;;;2.58;2.28;;;21.30;71.00;;;;;;5136039;27;20043;-56
2021/08/19 04:30:08;;;;;;;2.40;2.20;;;21.30;71.00;;;;;;5135044;27;20220;-58
2021/08/19 04:32:34;;;;;;;2.40;2.17;;;21.30;71.00;;;;;;5134532;27;20038;-56
2021/08/19 04:35:00;;;;;;;2.00;1.73;;;21.30;71.00;;;;;;5134611;27;20058;-57
2021/08/19 04:37:27;;;;;;;2.42;2.10;;;21.30;71.00;;;;;;5134616;27;20169;-57
2021/08/19 04:39:52;;;;;;;2.58;2.20;;;21.30;71.00;;;;;;5134170;27;20080;-52
2021/08/19 04:42:19;;;;;;;2.33;2.05;;;21.30;71.00;;;;;;5134465;27;20095;-46
2021/08/19 04:44:45;;;;;;;2.67;1.90;;;21.30;71.00;;;;;;5135309;27;20049;-56
2021/08/19 04:47:11;;;;;;;3.08;2.40;;;21.30;71.00;;;;;;5136719;27;20039;-53
2021/08/19 04:49:38;;;;;;;2.30;2.10;;;21.30;71.00;;;;;;5135367;27;20135;-45
2021/08/19 04:52:07;;;;;;;2.40;2.20;;;21.30;71.00;;;;;;5134865;27;20040;-52
2021/08/19 04:54:33;;;;;;;2.47;1.88;;;21.30;71.00;;;;;;5134918;27;20119;-57
2021/08/19 04:56:59;;;;;;;2.95;2.35;;;21.30;71.00;;;;;;5134864;27;20530;-58
2021/08/19 04:59:24;;;;;;;3.15;2.47;;;21.30;71.00;;;;;;5137845;27;20091;-57
2021/08/19 05:01:50;;;;;;;1.98;1.77;;;21.30;71.00;;;;;;5154810;27;20482;-43
2021/08/19 05:04:16;;;;;;;2.47;2.00;;;21.30;71.00;;;;;;5155702;27;20493;-57
2021/08/19 05:06:42;;;;;;;2.17;1.98;;;21.30;71.00;;;;;;5155587;27;20512;-52
2021/08/19 05:09:08;;;;;;;2.40;2.10;;;21.30;71.00;;;;;;5153449;27;20604;-42
2021/08/19 05:11:35;;;;;;;2.95;2.00;;;21.30;71.00;;;;;;5155907;27;20387;-39
2021/08/19 05:14:03;;;;;;;2.15;1.95;;;21.30;71.00;;;;;;5155081;27;20079;-52
2021/08/19 05:16:31;;;;;;;2.38;2.17;;;21.30;71.00;;;;;;5155363;27;20043;-42
2021/08/19 05:18:57;;;;;;;2.13;1.92;;;21.30;71.00;;;;;;5153551;27;20054;-56
2021/08/19 05:21:23;;;;;;;2.08;1.88;;;21.30;71.00;;;;;;5155403;27;20583;-43
2021/08/19 05:23:49;;;;;;;2.13;1.80;;;21.30;71.00;;;;;;5155330;27;20099;-38
2021/08/19 05:26:16;;;;;;;2.15;1.83;;;21.30;71.70;;;;;;5155364;27;20371;-35
2021/08/19 05:28:41;;;;;;;2.30;1.90;;;21.30;71.00;;;;;;5154913;27;20082;-43
2021/08/19 05:31:08;;;;;;;2.30;2.10;;;21.40;71.10;;;;;;5153534;27;20096;-39
2021/08/19 05:33:37;;;;;;;2.10;1.90;;;21.30;71.00;;;;;;5155158;27;20134;-41
2021/08/19 05:36:08;;;;;;;2.10;1.80;;;21.30;71.00;;;;;;5155126;27;20494;-36
2021/08/19 05:38:37;;;;;;;2.42;1.80;;;21.30;71.60;;;;;;5155412;27;20046;-36
2021/08/19 05:41:04;;;;;;;2.58;2.28;;;21.30;71.00;;;;;;5153329;27;20554;-35
2021/08/19 05:43:34;;;;;;;2.58;2.20;;;21.30;71.00;;;;;;5155160;27;20050;-37
2021/08/19 05:45:59;;;;;;;2.58;2.38;;;21.30;71.00;;;;;;5154737;27;20053;-50
2021/08/19 05:48:25;;;;;;;2.63;2.00;;;21.30;71.00;;;;;;5153834;27;20400;-43
2021/08/19 05:50:51;;;;;;;2.08;1.83;;;21.30;71.00;;;;;;5153062;27;20507;-47
2021/08/19 05:53:17;;;;;;;2.30;2.05;;;21.30;71.00;;;;;;5148915;27;20391;-49
2021/08/19 05:55:43;;;;;;;2.35;2.00;;;21.30;71.00;;;;;;5134232;27;20043;-44
2021/08/19 05:58:13;;;;;;;2.42;1.95;;;21.30;71.00;;;;;;5134469;27;20043;-44
2021/08/19 06:00:39;;;;;;;2.20;2.00;;;21.30;71.10;;;;;;5133974;27;20047;-43
2021/08/19 06:03:05;;;;;;;2.70;2.10;;;21.30;71.10;;;;;;5135723;27;20071;-47
2021/08/19 06:05:38;;;;;;;2.17;1.80;;;21.30;71.00;;;;;;5143206;27;20047;-49
2021/08/19 06:08:04;;;;;;;1.90;1.70;;;21.30;71.00;;;;;;5133722;27;20103;-53
2021/08/19 06:10:32;;;;;;;2.10;1.80;;;21.30;71.00;;;;;;5115778;27;20054;-48
2021/08/19 06:12:58;;;;;;;1.88;1.70;;;21.30;71.00;;;;;;5135163;27;20428;-46
2021/08/19 06:15:24;;;;;;;2.40;1.77;;;21.30;71.00;;;;;;5133573;27;20388;-41
2021/08/19 06:17:51;;;;;;;2.17;1.90;;;21.30;71.00;;;;;;5133072;27;20071;-49
2021/08/19 06:20:17;;;;;;;2.00;1.80;;;21.30;71.00;;;;;;5133362;27;20146;-50
2021/08/19 06:22:45;;;;;;;2.45;2.10;;;21.30;71.00;;;;;;5134233;27;20143;-45
2021/08/19 06:25:11;;;;;;;2.47;1.95;;;21.30;71.00;;;;;;5133836;27;20110;-45
2021/08/19 06:27:37;;;;;;;2.13;1.92;;;21.30;71.70;;;;;;5133455;27;20055;-47
2021/08/19 06:30:04;;;;;;;2.45;1.98;;;21.40;71.10;;;;;;5133222;27;20054;-53
2021/08/19 06:32:35;;;;;;;2.10;1.90;;;21.30;71.00;;;;;;5132876;27;20047;-46
2021/08/19 06:35:02;;;;;;;1.98;1.80;;;21.30;71.00;;;;;;5134529;27;20054;-46
2021/08/19 06:37:32;;;;;;;2.10;1.90;;;21.30;71.00;;;;;;5115477;27;20108;-42
2021/08/19 06:39:58;;;;;;;2.03;1.85;;;21.30;71.00;;;;;;5133389;27;20406;-53
2021/08/19 06:42:23;;;;;;;2.30;2.10;;;21.30;71.00;;;;;;5133167;27;20051;-49
2021/08/19 06:44:49;;;;;;;2.13;1.75;;;21.30;71.00;;;;;;5134228;27;20384;-54
2021/08/19 06:47:15;;;;;;;1.98;1.80;;;21.30;71.00;;;;;;5132740;27;20103;-53
2021/08/19 06:49:43;;;;;;;2.10;1.90;;;21.30;71.00;;;;;;5132689;27;20114;-41
2021/08/19 06:52:09;;;;;;;2.28;1.77;;;21.30;71.00;;;;;;5132974;27;20046;-48
2021/08/19 06:54:35;;;;;;;1.70;1.60;;;21.30;71.00;;;;;;5132936;27;20483;-46
2021/08/19 06:57:01;;;;;;;1.88;1.77;;;21.30;71.10;;;;;;5133915;27;20047;-50
2021/08/19 06:59:28;;;;;;;2.00;1.65;;;21.30;71.00;;;;;;5132431;27;20396;-52
2021/08/19 07:01:54;;;;;;;1.73;1.60;;;21.30;71.00;;;;;;5128279;27;20050;-47
2021/08/19 07:04:19;;;;;;;2.20;1.70;;;21.30;71.00;;;;;;5152649;27;20178;-44
2021/08/19 07:06:46;;;;;;;2.42;1.98;;;21.30;71.00;;;;;;5145100;27;20053;-45
2021/08/19 07:09:12;;;;;;;2.03;1.70;;;21.30;71.00;;;;;;5132508;27;20059;-41
2021/08/19 07:11:39;;;;;;;1.95;1.70;;;21.30;71.00;;;;;;5132268;27;20546;-51
2021/08/19 07:14:05;;;;;;;1.50;1.40;;;21.30;71.00;;;;;;5132964;28;20142;-46
2021/08/19 07:16:31;;;;;;;2.05;1.85;;;21.30;71.00;;;;;;5132672;28;20053;-38
2021/08/19 07:18:57;;;;;;;1.95;1.83;;;21.30;71.00;;;;;;5139818;27;20486;-51
2021/08/19 07:21:22;;;;;;;1.75;1.65;;;21.30;71.00;;;;;;5144671;27;20047;-54
2021/08/19 07:23:48;;;;;;;1.58;1.42;;;21.30;71.00;;;;;;5136385;27;20118;-50
2021/08/19 07:26:14;;;;;;;1.73;1.63;;;21.30;71.00;;;;;;5146132;27;20070;-52
2021/08/19 07:28:39;;;;;;;1.80;1.70;;;21.30;71.00;;;;;;5139283;27;20062;-40
2021/08/19 07:31:05;;;;;;;1.83;1.73;;;21.30;71.00;;;;;;5153216;27;20077;-43
2021/08/19 07:33:31;;;;;;;1.70;1.60;;;21.30;71.00;;;;;;5153044;27;20121;-41
2021/08/19 07:35:57;;;;;;;1.90;1.52;;;21.30;71.00;;;;;;5152032;27;20050;-55
2021/08/19 07:38:23;;;;;;;1.63;1.52;;;21.30;71.00;;;;;;5152914;27;20062;-46
2021/08/19 07:40:49;;;;;;;1.98;1.77;;;21.30;71.00;;;;;;5141581;27;20043;-46
2021/08/19 07:43:15;;;;;;;2.00;1.70;;;21.30;71.00;;;;;;5132742;27;21614;-44
2021/08/19 07:45:41;;;;;;;1.88;1.58;;;21.30;71.00;;;;;;5134130;27;20047;-42
2021/08/19 07:48:12;;;;;;;1.77;1.67;;;21.30;71.00;;;;;;5133080;27;20138;-47
2021/08/19 07:50:39;;;;;;;2.00;1.80;;;21.30;71.00;;;;;;5132988;27;20046;-44
2021/08/19 07:53:06;;;;;;;2.05;1.80;;;21.30;71.00;;;;;;5115557;28;20096;-44
2021/08/19 07:55:34;;;;;;;1.80;1.65;;;21.20;70.90;;;;;;5139436;27;20039;-51
2021/08/19 07:58:00;;;;;;;1.70;1.52;;;21.30;71.00;;;;;;5114827;27;20103;-41
2021/08/19 08:00:28;;;;;;;1.63;1.52;;;21.30;71.00;;;;;;5147797;27;20038;-45
2021/08/19 08:02:55;;;;;;;2.55;1.77;;;21.30;71.00;;;;;;5153183;27;20168;-51
2021/08/19 08:05:23;;;;;;;1.67;1.58;;;21.30;71.00;;;;;;5147894;27;20042;-40
2021/08/19 08:07:53;;;;;;;1.88;1.65;;;21.30;71.00;;;;;;5138679;27;20042;-44
2021/08/19 08:10:19;;;;;;;1.55;1.45;;;21.30;71.00;;;;;;5152879;27;20470;-42
2021/08/19 08:12:44;;;;;;;1.60;1.50;;;21.30;71.00;;;;;;5155935;27;20042;-37
2021/08/19 08:15:11;;;;;;;2.13;1.90;;;21.30;71.00;;;;;;5156982;27;20130;-45
2021/08/19 08:17:38;;;;;;;1.92;1.63;;;21.30;71.00;;;;;;5157085;27;20483;-50
2021/08/19 08:20:06;;;;;;;1.67;1.58;;;21.30;71.00;;;;;;5155681;27;20109;-45
2021/08/19 08:22:32;;;;;;;1.45;1.33;;;21.30;71.00;;;;;;5156100;27;20149;-54
2021/08/19 08:25:01;;;;;;;2.00;1.80;;;21.30;71.00;;;;;;5156302;27;20490;-47
2021/08/19 08:27:27;;;;;;;1.50;1.40;;;21.30;71.00;;;;;;5155756;27;20564;-47
2021/08/19 08:29:55;;;;;;;1.85;1.70;;;21.30;71.00;;;;;;5156008;27;20141;-47
2021/08/19 08:32:21;;;;;;;1.60;1.50;;;21.30;71.00;;;;;;5138594;27;20043;-52
2021/08/19 08:34:53;;;;;;;1.85;1.48;;;21.30;71.00;;;;;;5148951;27;20161;-39
2021/08/19 08:37:19;;;;;;;1.77;1.60;;;21.30;71.00;;;;;;5127824;27;20142;-49
2021/08/19 08:39:45;;;;;;;1.42;1.33;;;21.30;71.00;;;;;;5155575;27;20050;-37
2021/08/19 08:42:11;;;;;;;1.70;1.60;;;21.30;71.00;;;;;;5154681;27;20402;-44
2021/08/19 08:44:38;;;;;;;1.73;1.50;;;21.30;71.00;;;;;;5155740;27;20133;-46
2021/08/19 08:47:05;;;;;;;1.40;1.30;;;21.30;71.00;;;;;;5155347;27;20174;-45
2021/08/19 08:49:31;;;;;;;1.60;1.50;;;21.30;71.00;;;;;;5133531;27;20043;-43
2021/08/19 08:51:58;;;;;;;1.60;1.50;;;21.30;71.00;;;;;;5154968;27;20054;-42
2021/08/19 08:54:29;;;;;;;1.60;1.50;;;21.30;71.00;;;;;;5154834;27;20486;-42
2021/08/19 08:56:58;;;;;;;1.50;1.40;;;21.30;71.00;;;;;;5135925;27;20047;-37
2021/08/19 08:59:27;;;;;;;1.55;1.45;;;21.30;71.00;;;;;;5152629;27;20039;-52
2021/08/19 09:01:56;;;;;;;1.42;1.33;;;21.30;71.00;;;;;;5155067;27;20046;-39
2021/08/19 09:04:23;;;;;;;1.60;1.50;;;21.30;71.00;;;;;;5154122;27;20062;-40
2021/08/19 09:06:49;;;;;;;1.33;1.23;;;21.30;71.00;;;;;;5154721;27;20046;-34
2021/08/19 09:09:18;;;;;;;1.65;1.50;;;21.30;71.00;;;;;;5154481;27;20065;-36
2021/08/19 09:12:04;;;;;;;1.67;1.20;;;21.30;71.00;;;;;;5154271;27;20474;-33
2021/08/19 09:14:35;;;;;;;1.45;1.35;;;21.30;71.00;;;;;;5153036;27;20057;-40
2021/08/19 09:17:01;;;;;;;1.48;1.38;;;21.30;71.00;;;;;;5154476;27;20192;-34
2021/08/19 09:19:30;;;;;;;1.20;1.20;;;21.30;71.00;;;;;;5152853;27;20078;-39
2021/08/19 09:22:05;;;;;;;1.52;1.42;;;21.30;71.00;;;;;;5154009;27;20039;-47
2021/08/19 09:24:32;;;;;;;1.20;1.10;;;21.30;71.00;;;;;;5154517;27;20043;-39
2021/08/19 09:27:16;;;;;;;1.40;1.30;;;21.30;71.00;;;;;;5153713;27;20414;-45
2021/08/19 09:29:45;;;;;;;1.40;1.30;;;21.30;71.00;;;;;;5153454;27;20081;-45
2021/08/19 09:32:13;;;;;;;1.60;1.50;;;21.30;71.00;;;;;;5154079;27;20046;-43
2021/08/19 09:34:40;;;;;;;1.40;1.30;;;21.30;71.00;;;;;;5154102;27;20051;-38
2021/08/19 09:37:12;;;;;;;1.45;1.35;;;21.30;71.00;;;;;;5154205;27;20081;-38
2021/08/19 09:39:40;;;;;;;1.65;1.27;;;21.30;71.00;;;;;;5154486;27;20130;-49
2021/08/19 09:42:07;;;;;;;1.40;1.30;;;21.30;71.00;;;;;;5153163;27;20050;-42
2021/08/19 09:44:39;;;;;;;1.40;1.30;;;21.30;71.00;;;;;;5154478;27;20376;-43
2021/08/19 09:47:26;;;;;;;1.23;1.13;;;21.30;71.00;;;;;;5153916;27;20138;-42
2021/08/19 09:50:08;;;;;;;1.45;1.35;;;21.30;71.00;;;;;;5153743;27;20050;-41
2021/08/19 09:52:34;;;;;;;1.33;1.23;;;21.30;71.00;;;;;;5153897;27;20137;-47
2021/08/19 09:55:29;;;;;;;1.50;1.40;;;21.30;71.00;;;;;;5153930;27;20121;-48
2021/08/19 09:57:57;;;;;;;1.25;1.15;;;21.30;70.90;;;;;;5152718;27;20054;-49
2021/08/19 10:00:37;;;;;;;1.40;1.30;;;21.30;71.00;;;;;;5154297;27;20051;-40
2021/08/19 10:03:03;;;;;;;1.42;1.25;;;21.30;71.00;;;;;;5152850;27;20490;-43
2021/08/19 10:05:29;;;;;;;1.40;1.30;;;21.30;71.00;;;;;;5154027;27;20466;-46
2021/08/19 10:07:57;;;;;;;1.08;1.00;;;21.30;71.00;;;;;;5153620;27;20129;-46
2021/08/19 10:10:23;;;;;;;1.50;1.40;;;21.30;71.00;;;;;;5153556;27;20058;-50
2021/08/19 10:12:49;;;;;;;1.23;1.13;;;21.30;71.00;;;;;;5153056;27;20050;-46
2021/08/19 10:15:15;;;;;;;1.30;1.20;;;21.30;71.00;;;;;;5153621;27;20047;-42
2021/08/19 10:17:49;;;;;;;1.40;1.30;;;21.30;71.00;;;;;;5153279;27;20119;-42
2021/08/19 10:20:19;;;;;;;1.35;1.23;;;21.30;71.00;;;;;;5153516;27;20045;-41
2021/08/19 10:22:47;;;;;;;1.15;1.05;;;21.30;71.00;;;;;;5134927;27;20087;-55
2021/08/19 10:25:14;;;;;;;1.10;1.00;;;21.30;71.00;;;;;;5152812;27;20494;-46
2021/08/19 10:27:39;;;;;;;1.20;1.10;;;21.30;71.00;;;;;;5153006;27;20069;-36
2021/08/19 10:30:18;;;;;;;1.50;1.40;;;21.30;71.00;;;;;;5153642;27;20043;-34
2021/08/19 10:32:50;;;;;;;1.10;1.00;;;21.30;71.00;;;;;;5153179;27;20042;-36
2021/08/19 10:35:26;;;;;;;1.10;1.00;;;21.40;71.10;;;;;;5152929;27;20508;-34
2021/08/19 10:37:54;;;;;;;1.30;1.20;;;21.30;70.90;;;;;;5153452;27;20054;-34
2021/08/19 10:40:20;;;;;;;1.38;1.10;;;21.30;71.00;;;;;;5152610;27;20138;-33
2021/08/19 10:42:52;;;;;;;1.17;1.08;;;21.30;71.00;;;;;;5152412;27;20055;-36
2021/08/19 10:45:27;;;;;;;1.20;1.10;;;21.30;71.00;;;;;;5153174;27;20085;-39
2021/08/19 10:48:15;;;;;;;1.40;1.30;;;21.30;71.00;;;;;;5152758;27;20462;-35
2021/08/19 10:50:43;;;;;;;1.30;1.20;;;21.30;70.90;;;;;;5153221;27;20126;-34
2021/08/19 10:53:22;;;;;;;1.20;1.10;;;21.30;71.00;;;;;;5152665;27;20113;-35
2021/08/19 10:55:48;;;;;;;1.08;0.98;;;21.30;70.90;;;;;;5152654;27;20047;-35
2021/08/19 10:58:24;;;;;;;1.20;1.10;;;21.30;71.00;;;;;;5152711;27;20549;-35
2021/08/19 11:00:51;;;;;;;1.20;1.10;;;21.30;71.60;;;;;;5153133;27;20030;-36
2021/08/19 11:03:37;;;;;;;1.40;1.30;;;21.30;71.00;;;;;;5152350;27;20038;-41
2021/08/19 11:06:03;;;;;;;1.33;1.23;;;21.30;71.00;;;;;;5152463;27;20046;-34
2021/08/19 11:08:46;;;;;;;1.25;1.15;;;21.40;71.00;;;;;;5152709;27;20054;-42
2021/08/19 11:11:25;;;;;;;1.25;1.17;;;21.30;71.00;;;;;;5151004;27;20461;-36
2021/08/19 11:13:58;;;;;;;1.30;1.20;;;21.30;71.00;;;;;;5151467;27;20393;-34
2021/08/19 11:16:24;;;;;;;6.82;3.42;;;21.40;71.80;;;;;;5152640;27;20050;-35
2021/08/19 11:18:49;;;;;;;4.88;2.88;;;21.30;71.30;;;;;;5151664;27;20451;-36
2021/08/19 11:21:15;;;;;;;4.30;2.63;;;21.30;71.50;;;;;;5152041;27;20070;-38
2021/08/19 11:23:43;;;;;;;2.92;2.58;;;21.30;71.50;;;;;;5151877;27;20494;-50
2021/08/19 11:26:11;;;;;;;4.00;2.33;;;21.30;71.60;;;;;;5150627;27;20053;-36
2021/08/19 11:28:42;;;;;;;4.07;2.35;;;21.30;71.70;;;;;;5151988;27;20122;-34
2021/08/19 11:31:11;;;;;;;3.60;2.50;;;21.30;71.70;;;;;;5151915;27;20053;-35
2021/08/19 11:33:39;;;;;;;8.82;3.78;;;21.30;71.70;;;;;;5151910;27;20050;-41
2021/08/19 11:36:06;;;;;;;4.32;2.95;;;21.30;71.70;;;;;;5152515;27;20050;-41
2021/08/19 11:38:33;;;;;;;5.15;3.15;;;21.30;71.90;;;;;;5152849;27;20474;-45
2021/08/19 11:41:09;;;;;;;3.85;2.72;;;21.30;71.90;;;;;;5150516;27;20039;-45
2021/08/19 11:43:37;;;;;;;7.18;3.33;;;21.30;71.90;;;;;;5153024;27;20054;-36
2021/08/19 11:46:12;;;;;;;4.20;2.90;;;21.30;72.00;;;;;;5153832;27;20039;-47
2021/08/19 11:48:57;;;;;;;4.20;2.95;;;21.30;72.00;;;;;;5156682;27;20054;-40
2021/08/19 11:51:29;;;;;;;5.30;3.05;;;21.30;72.00;;;;;;5156570;27;20045;-44
2021/08/19 11:54:01;;;;;;;4.72;3.08;;;21.30;72.00;;;;;;5155743;27;20050;-43
2021/08/19 11:56:32;;;;;;;3.90;3.00;;;21.30;72.00;;;;;;5156046;27;20046;-46
2021/08/19 11:59:04;;;;;;;3.00;2.58;;;21.30;72.10;;;;;;5156330;27;20042;-41
2021/08/19 12:01:31;;;;;;;2.95;2.33;;;21.30;72.10;;;;;;5138915;27;20103;-42
2021/08/19 12:03:57;;;;;;;4.10;2.65;;;21.30;72.10;;;;;;5136318;27;20050;-41
2021/08/19 12:06:24;;;;;;;4.03;2.75;;;21.40;72.10;;;;;;5134942;27;20134;-46
2021/08/19 12:08:53;;;;;;;3.50;2.90;;;21.40;72.10;;;;;;5134326;27;20062;-42
2021/08/19 12:11:28;;;;;;;3.28;2.60;;;21.40;72.10;;;;;;5140089;27;20043;-45
2021/08/19 12:13:55;;;;;;;3.08;2.72;;;21.40;72.20;;;;;;5156059;27;20491;-39
2021/08/19 12:16:27;;;;;;;2.65;2.35;;;21.40;72.20;;;;;;5135929;27;20118;-42
2021/08/19 12:19:15;;;;;;;3.70;2.50;;;21.40;72.20;;;;;;5155338;27;20039;-43
2021/08/19 12:21:43;;;;;;;3.33;2.58;;;21.40;72.10;;;;;;5155762;27;20049;-49
2021/08/19 12:24:15;;;;;;;3.15;2.53;;;21.40;72.20;;;;;;5155418;27;20047;-39
2021/08/19 12:26:41;;;;;;;3.90;2.95;;;21.40;72.20;;;;;;5155506;27;20046;-41
2021/08/19 12:29:07;;;;;;;4.65;2.83;;;21.40;72.10;;;;;;5155531;27;20072;-43
2021/08/19 12:31:51;;;;;;;3.22;2.47;;;21.40;72.10;;;;;;5155046;27;20396;-38
2021/08/19 12:34:20;;;;;;;3.63;2.73;;;21.40;72.10;;;;;;5153828;27;20442;-46
2021/08/19 12:36:48;;;;;;;4.00;2.55;;;21.40;72.10;;;;;;5155277;27;20065;-39
2021/08/19 12:39:26;;;;;;;3.65;2.70;;;21.40;72.10;;;;;;5154474;27;20051;-52
2021/08/19 12:42:10;;;;;;;3.72;2.33;;;21.40;72.10;;;;;;5154913;27;20050;-38
2021/08/19 12:44:37;;;;;;;3.50;2.30;;;21.40;72.00;;;;;;5155489;27;20050;-41
2021/08/19 12:47:04;;;;;;;2.53;2.20;;;21.40;72.00;;;;;;5153923;27;20383;-46
2021/08/19 12:49:38;;;;;;;2.63;2.35;;;21.40;72.00;;;;;;5154760;27;20054;-41
2021/08/19 12:52:24;;;;;;;2.77;2.27;;;21.40;71.90;;;;;;5146787;27;20344;-43